createdAt,value
2017-10-18T00:00:04.918Z,0
2017-10-18T00:01:04.943Z,0
2017-10-18T00:02:04.959Z,0
2017-10-18T00:03:05.000Z,0
2017-10-18T00:04:05.073Z,0
2017-10-18T00:05:05.356Z,0
2017-10-18T00:06:05.134Z,0
2017-10-18T00:07:05.075Z,0
2017-10-18T00:08:05.094Z,0
2017-10-18T00:09:05.116Z,0
2017-10-18T00:10:05.328Z,0
2017-10-18T00:11:05.209Z,0
2017-10-18T00:12:05.508Z,0
2017-10-18T00:13:05.202Z,0
2017-10-18T00:14:05.230Z,0
2017-10-18T00:15:05.266Z,0
2017-10-18T00:16:05.682Z,0
2017-10-18T00:17:05.305Z,0
2017-10-18T00:18:05.376Z,0
2017-10-18T00:19:05.341Z,0
2017-10-18T00:20:05.406Z,0
2017-10-18T00:21:05.389Z,0
2017-10-18T00:22:05.408Z,0
2017-10-18T00:23:05.439Z,0
2017-10-18T00:24:05.455Z,0
2017-10-18T00:25:05.486Z,0
2017-10-18T00:26:05.496Z,0
2017-10-18T00:27:05.900Z,0
2017-10-18T00:28:05.544Z,0
2017-10-18T00:29:05.562Z,0
2017-10-18T00:30:05.593Z,0
2017-10-18T00:31:05.617Z,0
2017-10-18T00:32:05.636Z,0
2017-10-18T00:33:05.656Z,0
2017-10-18T00:34:05.685Z,0
2017-10-18T00:35:05.695Z,0
2017-10-18T00:36:05.767Z,0
2017-10-18T00:37:05.750Z,0
2017-10-18T00:38:05.790Z,0
2017-10-18T00:39:05.903Z,0
2017-10-18T00:40:05.821Z,0
2017-10-18T00:41:05.835Z,0
2017-10-18T00:42:05.857Z,0
2017-10-18T00:43:05.886Z,0
2017-10-18T00:44:05.940Z,0
2017-10-18T00:45:05.921Z,0
2017-10-18T00:46:05.944Z,0
2017-10-18T00:47:06.279Z,0
2017-10-18T00:48:05.990Z,0
2017-10-18T00:49:06.407Z,0
2017-10-18T00:50:06.030Z,0
2017-10-18T00:51:06.113Z,0
2017-10-18T00:52:09.072Z,0
2017-10-18T00:53:06.094Z,0
2017-10-18T00:54:06.132Z,0
2017-10-18T00:55:06.146Z,0
2017-10-18T00:56:06.174Z,0
2017-10-18T00:57:06.189Z,0
2017-10-18T00:58:06.213Z,0
2017-10-18T00:59:06.342Z,0
2017-10-18T01:00:06.656Z,0
2017-10-18T01:01:06.274Z,0
2017-10-18T01:02:06.304Z,0
2017-10-18T01:03:06.322Z,0
2017-10-18T01:04:06.705Z,0
2017-10-18T01:05:06.407Z,0
2017-10-18T01:06:06.770Z,0
2017-10-18T01:07:06.409Z,0
2017-10-18T01:08:06.434Z,0
2017-10-18T01:09:06.454Z,0
2017-10-18T01:10:06.516Z,0
2017-10-18T01:11:06.639Z,0
2017-10-18T01:12:06.524Z,0
2017-10-18T01:13:06.550Z,0
2017-10-18T01:14:06.894Z,0
2017-10-18T01:15:06.604Z,0
2017-10-18T01:16:06.613Z,0
2017-10-18T01:17:06.647Z,0
2017-10-18T01:18:06.651Z,0
2017-10-18T01:19:06.672Z,0
2017-10-18T01:20:06.703Z,0
2017-10-18T01:21:06.720Z,0
2017-10-18T01:22:07.085Z,0
2017-10-18T01:23:06.762Z,0
2017-10-18T01:24:06.785Z,0
2017-10-18T01:25:06.812Z,0
2017-10-18T01:26:06.825Z,0
2017-10-18T01:27:06.858Z,0
2017-10-18T01:28:07.208Z,0
2017-10-18T01:29:07.227Z,0
2017-10-18T01:30:06.929Z,0
2017-10-18T01:31:07.303Z,0
2017-10-18T01:32:07.104Z,0
2017-10-18T01:33:07.116Z,0
2017-10-18T01:34:07.001Z,0
2017-10-18T01:35:07.044Z,0
2017-10-18T01:36:07.050Z,0
2017-10-18T01:37:07.442Z,0
2017-10-18T01:38:07.445Z,0
2017-10-18T01:39:07.111Z,0
2017-10-18T01:40:07.185Z,0
2017-10-18T01:41:07.158Z,0
2017-10-18T01:42:07.188Z,0
2017-10-18T01:43:08.626Z,0
2017-10-18T01:44:08.743Z,0
2017-10-18T01:45:08.635Z,0
2017-10-18T01:46:08.678Z,0
2017-10-18T01:47:08.489Z,0
2017-10-18T01:48:09.040Z,0
2017-10-18T01:49:07.972Z,0
2017-10-18T01:50:09.004Z,0
2017-10-18T01:51:07.386Z,0
2017-10-18T01:52:07.405Z,0
2017-10-18T01:53:07.424Z,0
2017-10-18T01:54:07.533Z,0
2017-10-18T01:55:07.840Z,0
2017-10-18T01:56:07.492Z,0
2017-10-18T01:57:07.512Z,0
2017-10-18T01:58:07.530Z,0
2017-10-18T01:59:07.550Z,0
2017-10-18T02:00:08.255Z,0
2017-10-18T02:01:07.598Z,0
2017-10-18T02:02:07.619Z,0
2017-10-18T02:03:07.966Z,0
2017-10-18T02:04:07.656Z,0
2017-10-18T02:05:07.692Z,0
2017-10-18T02:06:07.708Z,0
2017-10-18T02:07:07.725Z,0
2017-10-18T02:08:08.076Z,0
2017-10-18T02:09:08.092Z,0
2017-10-18T02:10:07.814Z,0
2017-10-18T02:11:07.813Z,0
2017-10-18T02:12:08.206Z,0
2017-10-18T02:13:08.530Z,0
2017-10-18T02:14:07.902Z,0
2017-10-18T02:15:07.947Z,0
2017-10-18T02:16:08.322Z,0
2017-10-18T02:17:07.950Z,0
2017-10-18T02:18:07.963Z,0
2017-10-18T02:19:08.334Z,0
2017-10-18T02:20:08.010Z,0
2017-10-18T02:21:08.350Z,0
2017-10-18T02:22:08.055Z,0
2017-10-18T02:23:08.081Z,0
2017-10-18T02:24:08.093Z,0
2017-10-18T02:25:08.457Z,0
2017-10-18T02:26:08.145Z,0
2017-10-18T02:27:08.603Z,0
2017-10-18T02:28:08.188Z,0
2017-10-18T02:29:08.207Z,0
2017-10-18T02:30:08.242Z,0
2017-10-18T02:31:08.388Z,0
2017-10-18T02:32:08.267Z,0
2017-10-18T02:33:08.294Z,0
2017-10-18T02:34:08.633Z,0
2017-10-18T02:35:08.343Z,0
2017-10-18T02:36:08.369Z,0
2017-10-18T02:37:08.375Z,0
2017-10-18T02:38:08.486Z,0
2017-10-18T02:39:08.415Z,0
2017-10-18T02:40:08.436Z,0
2017-10-18T02:41:08.794Z,0
2017-10-18T02:42:08.640Z,0
2017-10-18T02:43:08.497Z,0
2017-10-18T02:44:08.529Z,0
2017-10-18T02:45:08.555Z,0
2017-10-18T02:46:08.566Z,0
2017-10-18T02:47:08.589Z,0
2017-10-18T02:48:08.938Z,0
2017-10-18T02:49:09.094Z,0
2017-10-18T02:50:08.648Z,0
2017-10-18T02:51:08.683Z,0
2017-10-18T02:52:08.698Z,0
2017-10-18T02:53:09.140Z,0
2017-10-18T02:54:08.743Z,0
2017-10-18T02:55:08.763Z,0
2017-10-18T02:56:08.790Z,0
2017-10-18T02:57:08.802Z,0
2017-10-18T02:58:08.831Z,0
2017-10-18T02:59:08.976Z,0
2017-10-18T03:00:08.921Z,0
2017-10-18T03:01:08.888Z,0
2017-10-18T03:02:08.912Z,0
2017-10-18T03:03:08.932Z,0
2017-10-18T03:04:08.953Z,0
2017-10-18T03:05:09.147Z,0
2017-10-18T03:06:08.995Z,0
2017-10-18T03:07:09.019Z,0
2017-10-18T03:08:09.034Z,0
2017-10-18T03:09:09.058Z,0
2017-10-18T03:10:09.196Z,0
2017-10-18T03:11:09.121Z,0
2017-10-18T03:12:09.133Z,0
2017-10-18T03:13:09.147Z,0
2017-10-18T03:14:09.177Z,0
2017-10-18T03:15:09.222Z,0
2017-10-18T03:16:09.214Z,0
2017-10-18T03:17:09.420Z,0
2017-10-18T03:18:09.253Z,0
2017-10-18T03:19:09.276Z,0
2017-10-18T03:20:09.302Z,0
2017-10-18T03:21:09.414Z,0
2017-10-18T03:22:09.345Z,0
2017-10-18T03:23:09.362Z,0
2017-10-18T03:24:09.384Z,0
2017-10-18T03:25:09.408Z,0
2017-10-18T03:26:09.423Z,0
2017-10-18T03:27:10.106Z,0
2017-10-18T03:28:09.917Z,0
2017-10-18T03:29:09.491Z,0
2017-10-18T03:30:09.522Z,0
2017-10-18T03:31:09.862Z,0
2017-10-18T03:32:09.563Z,0
2017-10-18T03:33:09.576Z,0
2017-10-18T03:34:09.649Z,0
2017-10-18T03:35:09.618Z,0
2017-10-18T03:36:09.637Z,0
2017-10-18T03:37:09.668Z,0
2017-10-18T03:38:09.714Z,0
2017-10-18T03:39:10.206Z,0
2017-10-18T03:40:09.724Z,0
2017-10-18T03:41:09.749Z,0
2017-10-18T03:42:09.772Z,0
2017-10-18T03:43:10.127Z,0
2017-10-18T03:44:09.836Z,0
2017-10-18T03:45:10.158Z,0
2017-10-18T03:46:09.859Z,0
2017-10-18T03:47:09.876Z,0
2017-10-18T03:48:09.899Z,0
2017-10-18T03:49:10.116Z,0
2017-10-18T03:50:09.996Z,0
2017-10-18T03:51:09.958Z,0
2017-10-18T03:52:09.985Z,0
2017-10-18T03:53:10.009Z,0
2017-10-18T03:54:10.656Z,0
2017-10-18T03:55:10.041Z,0
2017-10-18T03:56:10.115Z,0
2017-10-18T03:57:10.088Z,0
2017-10-18T03:58:10.104Z,0
2017-10-18T03:59:10.128Z,0
2017-10-18T04:00:10.154Z,0
2017-10-18T04:01:10.174Z,0
2017-10-18T04:02:10.190Z,0
2017-10-18T04:03:10.336Z,0
2017-10-18T04:04:10.278Z,0
2017-10-18T04:05:10.286Z,0
2017-10-18T04:06:10.303Z,0
2017-10-18T04:07:10.633Z,0
2017-10-18T04:08:10.313Z,0
2017-10-18T04:09:10.335Z,0
2017-10-18T04:10:10.705Z,0
2017-10-18T04:11:10.706Z,0
2017-10-18T04:12:10.766Z,0
2017-10-18T04:13:10.662Z,0
2017-10-18T04:14:10.456Z,0
2017-10-18T04:15:10.467Z,0
2017-10-18T04:16:10.490Z,0
2017-10-18T04:17:10.511Z,0
2017-10-18T04:18:10.531Z,0
2017-10-18T04:19:10.952Z,0
2017-10-18T04:20:10.567Z,0
2017-10-18T04:21:10.583Z,0
2017-10-18T04:22:10.627Z,0
2017-10-18T04:23:10.962Z,0
2017-10-18T04:24:10.714Z,0
2017-10-18T04:25:11.021Z,0
2017-10-18T04:26:10.698Z,0
2017-10-18T04:27:10.715Z,0
2017-10-18T04:28:10.734Z,0
2017-10-18T04:29:10.757Z,0
2017-10-18T04:30:10.781Z,0
2017-10-18T04:31:10.810Z,0
2017-10-18T04:32:10.826Z,0
2017-10-18T04:33:11.171Z,0
2017-10-18T04:34:10.863Z,0
2017-10-18T04:35:11.010Z,0
2017-10-18T04:36:10.931Z,0
2017-10-18T04:37:11.313Z,0
2017-10-18T04:38:11.031Z,0
2017-10-18T04:39:10.995Z,0
2017-10-18T04:40:11.009Z,0
2017-10-18T04:41:11.008Z,0
2017-10-18T04:42:11.034Z,0
2017-10-18T04:43:11.050Z,0
2017-10-18T04:44:11.082Z,0
2017-10-18T04:45:11.120Z,0
2017-10-18T04:46:11.239Z,0
2017-10-18T04:47:11.141Z,0
2017-10-18T04:48:11.302Z,0
2017-10-18T04:49:11.180Z,0
2017-10-18T04:50:11.199Z,0
2017-10-18T04:51:11.218Z,0
2017-10-18T04:52:11.250Z,0
2017-10-18T04:53:11.261Z,0
2017-10-18T04:54:11.640Z,0
2017-10-18T04:55:11.312Z,0
2017-10-18T04:56:11.463Z,0
2017-10-18T04:57:11.408Z,0
2017-10-18T04:58:11.370Z,0
2017-10-18T04:59:11.911Z,0
2017-10-18T05:00:11.428Z,0
2017-10-18T05:01:11.448Z,0
2017-10-18T05:02:11.785Z,0
2017-10-18T05:03:11.476Z,0
2017-10-18T05:04:11.519Z,0
2017-10-18T05:05:11.592Z,0
2017-10-18T05:06:11.544Z,0
2017-10-18T05:07:11.750Z,0
2017-10-18T05:08:11.590Z,0
2017-10-18T05:09:11.936Z,0
2017-10-18T05:10:12.005Z,0
2017-10-18T05:11:11.786Z,4
2017-10-18T05:12:12.041Z,4
2017-10-18T05:13:11.685Z,0
2017-10-18T05:14:11.718Z,4
2017-10-18T05:15:11.750Z,4
2017-10-18T05:16:12.070Z,8
2017-10-18T05:17:11.780Z,4
2017-10-18T05:18:11.792Z,4
2017-10-18T05:19:12.191Z,8
2017-10-18T05:20:11.839Z,12
2017-10-18T05:21:11.859Z,12
2017-10-18T05:22:11.879Z,12
2017-10-18T05:23:11.909Z,20
2017-10-18T05:24:12.246Z,24
2017-10-18T05:25:12.500Z,28
2017-10-18T05:26:11.975Z,32
2017-10-18T05:27:11.988Z,36
2017-10-18T05:28:12.332Z,44
2017-10-18T05:29:12.037Z,52
2017-10-18T05:30:12.102Z,60
2017-10-18T05:31:12.070Z,68
2017-10-18T05:32:12.095Z,76
2017-10-18T05:33:12.115Z,88
2017-10-18T05:34:12.139Z,96
2017-10-18T05:35:12.160Z,112
2017-10-18T05:36:12.175Z,120
2017-10-18T05:37:12.206Z,136
2017-10-18T05:38:12.216Z,152
2017-10-18T05:39:12.245Z,168
2017-10-18T05:40:12.597Z,188
2017-10-18T05:41:12.285Z,208
2017-10-18T05:42:12.631Z,236
2017-10-18T05:43:12.333Z,260
2017-10-18T05:44:12.365Z,292
2017-10-18T05:45:12.372Z,324
2017-10-18T05:46:12.741Z,352
2017-10-18T05:47:12.414Z,384
2017-10-18T05:48:12.500Z,416
2017-10-18T05:49:12.451Z,452
2017-10-18T05:50:12.838Z,488
2017-10-18T05:51:12.599Z,528
2017-10-18T05:52:12.518Z,572
2017-10-18T05:53:12.538Z,620
2017-10-18T05:54:12.560Z,664
2017-10-18T05:55:12.589Z,708
2017-10-18T05:56:12.607Z,752
2017-10-18T05:57:12.628Z,800
2017-10-18T05:58:12.658Z,844
2017-10-18T05:59:12.672Z,888
2017-10-18T06:00:12.699Z,932
2017-10-18T06:01:12.719Z,972
2017-10-18T06:02:13.059Z,1016
2017-10-18T06:03:12.801Z,1056
2017-10-18T06:04:12.783Z,1104
2017-10-18T06:05:13.118Z,1152
2017-10-18T06:06:13.161Z,1200
2017-10-18T06:07:13.180Z,1248
2017-10-18T06:08:13.196Z,1296
2017-10-18T06:09:12.880Z,1348
2017-10-18T06:10:13.141Z,1400
2017-10-18T06:11:12.928Z,1456
2017-10-18T06:12:12.947Z,1512
2017-10-18T06:13:12.967Z,1556
2017-10-18T06:14:12.991Z,1584
2017-10-18T06:15:13.019Z,1616
2017-10-18T06:16:13.037Z,1664
2017-10-18T06:17:13.055Z,1696
2017-10-18T06:18:13.089Z,1748
2017-10-18T06:19:13.421Z,1800
2017-10-18T06:20:13.165Z,1828
2017-10-18T06:21:13.142Z,1880
2017-10-18T06:22:13.160Z,1936
2017-10-18T06:23:13.192Z,1992
2017-10-18T06:24:13.546Z,2052
2017-10-18T06:25:13.242Z,2100
2017-10-18T06:26:13.900Z,2132
2017-10-18T06:27:13.269Z,2120
2017-10-18T06:28:13.298Z,2188
2017-10-18T06:29:13.317Z,2288
2017-10-18T06:30:13.337Z,2376
2017-10-18T06:31:13.373Z,2448
2017-10-18T06:32:13.378Z,2484
2017-10-18T06:33:13.399Z,2500
2017-10-18T06:34:13.433Z,2512
2017-10-18T06:35:13.506Z,2476
2017-10-18T06:36:13.475Z,2456
2017-10-18T06:37:14.160Z,2512
2017-10-18T06:38:13.517Z,2548
2017-10-18T06:39:13.544Z,2548
2017-10-18T06:40:13.554Z,2536
2017-10-18T06:41:13.593Z,2556
2017-10-18T06:42:13.602Z,2600
2017-10-18T06:43:13.633Z,2612
2017-10-18T06:44:13.992Z,2632
2017-10-18T06:45:13.996Z,2660
2017-10-18T06:46:13.685Z,2676
2017-10-18T06:47:13.714Z,2704
2017-10-18T06:48:13.746Z,2732
2017-10-18T06:49:13.755Z,2764
2017-10-18T06:50:13.773Z,2800
2017-10-18T06:51:13.846Z,2828
2017-10-18T06:52:14.144Z,2904
2017-10-18T06:53:13.851Z,3000
2017-10-18T06:54:13.879Z,3040
2017-10-18T06:55:13.892Z,3068
2017-10-18T06:56:13.978Z,3140
2017-10-18T06:57:13.938Z,3284
2017-10-18T06:58:13.955Z,3472
2017-10-18T06:59:13.982Z,3624
2017-10-18T07:00:14.324Z,3696
2017-10-18T07:01:14.016Z,3700
2017-10-18T07:02:14.360Z,3648
2017-10-18T07:03:14.062Z,3636
2017-10-18T07:04:14.410Z,3664
2017-10-18T07:05:14.115Z,3080
2017-10-18T07:06:14.132Z,3228
2017-10-18T07:07:14.479Z,3380
2017-10-18T07:08:14.180Z,3552
2017-10-18T07:09:14.200Z,3324
2017-10-18T07:10:14.601Z,3284
2017-10-18T07:11:14.247Z,3156
2017-10-18T07:12:14.264Z,2976
2017-10-18T07:13:14.289Z,2864
2017-10-18T07:14:14.321Z,2872
2017-10-18T07:15:14.336Z,2900
2017-10-18T07:16:14.356Z,2936
2017-10-18T07:17:14.383Z,3004
2017-10-18T07:18:14.731Z,3068
2017-10-18T07:19:14.756Z,3144
2017-10-18T07:20:14.446Z,3184
2017-10-18T07:21:14.472Z,3184
2017-10-18T07:22:14.493Z,3204
2017-10-18T07:23:14.519Z,3224
2017-10-18T07:24:14.538Z,3248
2017-10-18T07:25:14.610Z,3288
2017-10-18T07:26:14.585Z,3336
2017-10-18T07:27:14.602Z,3408
2017-10-18T07:28:14.635Z,3488
2017-10-18T07:29:14.657Z,3572
2017-10-18T07:30:14.683Z,3660
2017-10-18T07:31:14.703Z,3756
2017-10-18T07:32:14.720Z,3868
2017-10-18T07:33:14.745Z,3920
2017-10-18T07:34:14.774Z,3964
2017-10-18T07:35:14.797Z,3992
2017-10-18T07:36:14.811Z,4012
2017-10-18T07:37:14.834Z,4148
2017-10-18T07:38:14.853Z,4164
2017-10-18T07:39:15.201Z,4156
2017-10-18T07:40:14.908Z,4224
2017-10-18T07:41:14.930Z,4320
2017-10-18T07:42:14.971Z,4440
2017-10-18T07:43:15.293Z,4572
2017-10-18T07:44:14.995Z,4756
2017-10-18T07:45:15.028Z,4808
2017-10-18T07:46:15.042Z,4820
2017-10-18T07:47:15.062Z,4812
2017-10-18T07:48:15.106Z,4888
2017-10-18T07:49:15.112Z,5140
2017-10-18T07:50:15.133Z,5404
2017-10-18T07:51:15.156Z,5596
2017-10-18T07:52:15.180Z,5788
2017-10-18T07:53:15.203Z,5956
2017-10-18T07:54:15.224Z,5992
2017-10-18T07:55:15.247Z,6012
2017-10-18T07:56:15.277Z,6032
2017-10-18T07:57:15.945Z,6040
2017-10-18T07:58:15.317Z,6008
2017-10-18T07:59:15.341Z,6100
2017-10-18T08:00:15.373Z,6292
2017-10-18T08:01:15.436Z,6320
2017-10-18T08:02:15.730Z,6388
2017-10-18T08:03:15.766Z,6400
2017-10-18T08:04:15.462Z,6316
2017-10-18T08:05:15.501Z,6260
2017-10-18T08:06:15.518Z,6212
2017-10-18T08:07:15.528Z,6348
2017-10-18T08:08:15.560Z,6364
2017-10-18T08:09:15.579Z,6488
2017-10-18T08:10:15.922Z,6144
2017-10-18T08:11:15.624Z,6524
2017-10-18T08:12:15.973Z,7000
2017-10-18T08:13:15.683Z,7324
2017-10-18T08:14:15.693Z,7528
2017-10-18T08:15:15.720Z,7524
2017-10-18T08:16:15.740Z,6464
2017-10-18T08:17:15.772Z,6768
2017-10-18T08:18:16.446Z,6872
2017-10-18T08:19:15.867Z,7060
2017-10-18T08:20:15.839Z,7100
2017-10-18T08:21:15.863Z,7280
2017-10-18T08:22:15.882Z,7608
2017-10-18T08:23:15.907Z,7216
2017-10-18T08:24:15.956Z,7432
2017-10-18T08:25:15.956Z,7484
2017-10-18T08:26:15.998Z,7548
2017-10-18T08:27:16.010Z,7472
2017-10-18T08:28:16.357Z,7276
2017-10-18T08:29:16.058Z,7280
2017-10-18T08:30:16.085Z,7524
2017-10-18T08:31:16.107Z,7236
2017-10-18T08:32:16.133Z,7164
2017-10-18T08:33:16.154Z,7288
2017-10-18T08:34:16.179Z,7284
2017-10-18T08:35:16.201Z,7592
2017-10-18T08:36:16.276Z,7724
2017-10-18T08:37:16.261Z,7792
2017-10-18T08:38:16.278Z,7916
2017-10-18T08:39:16.299Z,7956
2017-10-18T08:40:16.338Z,8116
2017-10-18T08:41:16.353Z,8160
2017-10-18T08:42:16.376Z,8176
2017-10-18T08:43:16.404Z,8108
2017-10-18T08:44:16.760Z,8172
2017-10-18T08:45:16.459Z,8364
2017-10-18T08:46:16.476Z,8508
2017-10-18T08:47:16.515Z,8428
2017-10-18T08:48:16.530Z,8344
2017-10-18T08:49:16.549Z,8240
2017-10-18T08:50:16.578Z,8096
2017-10-18T08:51:16.604Z,7812
2017-10-18T08:52:16.632Z,7988
2017-10-18T08:53:16.978Z,7944
2017-10-18T08:54:16.684Z,7820
2017-10-18T08:55:16.696Z,7788
2017-10-18T08:56:16.725Z,7832
2017-10-18T08:57:16.749Z,7708
2017-10-18T08:58:16.778Z,7292
2017-10-18T08:59:16.835Z,6396
2017-10-18T09:00:16.954Z,6648
2017-10-18T09:01:16.847Z,6712
2017-10-18T09:02:16.871Z,7196
2017-10-18T09:03:16.905Z,6692
2017-10-18T09:04:16.979Z,6832
2017-10-18T09:05:16.948Z,6936
2017-10-18T09:06:16.980Z,7372
2017-10-18T09:07:17.025Z,7160
2017-10-18T09:08:17.027Z,7096
2017-10-18T09:09:17.049Z,6556
2017-10-18T09:10:17.077Z,7220
2017-10-18T09:11:17.111Z,7600
2017-10-18T09:12:17.126Z,7492
2017-10-18T09:13:17.155Z,7860
2017-10-18T09:14:17.200Z,8292
2017-10-18T09:15:17.205Z,8316
2017-10-18T09:16:17.230Z,7956
2017-10-18T09:17:17.255Z,8356
2017-10-18T09:18:17.603Z,8408
2017-10-18T09:19:17.362Z,8396
2017-10-18T09:20:17.344Z,8364
2017-10-18T09:21:17.367Z,8400
2017-10-18T09:22:17.385Z,8448
2017-10-18T09:23:17.412Z,8472
2017-10-18T09:24:17.438Z,8448
2017-10-18T09:25:17.463Z,8400
2017-10-18T09:26:17.488Z,8368
2017-10-18T09:27:17.520Z,8344
2017-10-18T09:28:17.544Z,8308
2017-10-18T09:29:17.571Z,8320
2017-10-18T09:30:17.605Z,8300
2017-10-18T09:31:17.610Z,8300
2017-10-18T09:32:17.649Z,8296
2017-10-18T09:33:17.999Z,8296
2017-10-18T09:34:18.068Z,8320
2017-10-18T09:35:17.718Z,8344
2017-10-18T09:36:17.744Z,8376
2017-10-18T09:37:17.782Z,8404
2017-10-18T09:38:17.795Z,8424
2017-10-18T09:39:17.828Z,8448
2017-10-18T09:40:17.860Z,8468
2017-10-18T09:41:17.874Z,8488
2017-10-18T09:42:17.901Z,8508
2017-10-18T09:43:17.929Z,8532
2017-10-18T09:44:17.956Z,8552
2017-10-18T09:45:18.309Z,8564
2017-10-18T09:46:18.014Z,8572
2017-10-18T09:47:18.036Z,8580
2017-10-18T09:48:18.065Z,8608
2017-10-18T09:49:18.090Z,8608
2017-10-18T09:50:18.444Z,8616
2017-10-18T09:51:18.466Z,8644
2017-10-18T09:52:18.163Z,10008
2017-10-18T09:53:18.191Z,19712
2017-10-18T09:54:18.216Z,28960
2017-10-18T09:55:18.252Z,34240
2017-10-18T09:56:18.272Z,36608
2017-10-18T09:57:18.294Z,35968
2017-10-18T09:58:18.653Z,36288
2017-10-18T09:59:18.349Z,36960
2017-10-18T10:00:18.375Z,36800
2017-10-18T10:01:18.405Z,38016
2017-10-18T10:02:18.433Z,39584
2017-10-18T10:03:18.464Z,39328
2017-10-18T10:04:18.810Z,39104
2017-10-18T10:05:18.531Z,39232
2017-10-18T10:06:18.539Z,40384
2017-10-18T10:07:18.637Z,41696
2017-10-18T10:08:18.603Z,43296
2017-10-18T10:09:18.629Z,44000
2017-10-18T10:10:18.667Z,43840
2017-10-18T10:11:18.692Z,44032
2017-10-18T10:12:18.726Z,43808
2017-10-18T10:13:18.750Z,44256
2017-10-18T10:14:18.907Z,45280
2017-10-18T10:15:19.138Z,44576
2017-10-18T10:16:19.169Z,44544
2017-10-18T10:17:18.880Z,46240
2017-10-18T10:18:18.909Z,47392
2017-10-18T10:19:18.944Z,48448
2017-10-18T10:20:18.972Z,48192
2017-10-18T10:21:19.006Z,46912
2017-10-18T10:22:19.045Z,47648
2017-10-18T10:23:19.451Z,48192
2017-10-18T10:24:19.104Z,47040
2017-10-18T10:25:19.136Z,49952
2017-10-18T10:26:19.499Z,50112
2017-10-18T10:27:19.204Z,49984
2017-10-18T10:28:19.243Z,46112
2017-10-18T10:29:19.293Z,44288
2017-10-18T10:30:19.306Z,51744
2017-10-18T10:31:19.658Z,49216
2017-10-18T10:32:19.369Z,36480
2017-10-18T10:33:19.403Z,47168
2017-10-18T10:34:19.451Z,46560
2017-10-18T10:35:19.472Z,51232
2017-10-18T10:36:19.505Z,51232
2017-10-18T10:37:19.538Z,49088
2017-10-18T10:38:19.898Z,47392
2017-10-18T10:39:19.939Z,47712
2017-10-18T10:40:19.643Z,54976
2017-10-18T10:41:19.738Z,54080
2017-10-18T10:42:20.061Z,52064
2017-10-18T10:43:20.068Z,47584
2017-10-18T10:44:19.792Z,40800
2017-10-18T10:45:19.830Z,40896
2017-10-18T10:46:19.853Z,38528
2017-10-18T10:47:19.888Z,36576
2017-10-18T10:48:20.244Z,39168
2017-10-18T10:49:19.953Z,39648
2017-10-18T10:50:19.990Z,37600
2017-10-18T10:51:20.022Z,38336
2017-10-18T10:52:20.064Z,42688
2017-10-18T10:53:20.097Z,46464
2017-10-18T10:54:20.136Z,42560
2017-10-18T10:55:20.172Z,36384
2017-10-18T10:56:20.579Z,36608
2017-10-18T10:57:20.239Z,36320
2017-10-18T10:58:20.280Z,34432
2017-10-18T10:59:20.310Z,34240
2017-10-18T11:00:20.356Z,34368
2017-10-18T11:01:20.378Z,37280
2017-10-18T11:02:20.421Z,41056
2017-10-18T11:03:20.467Z,42016
2017-10-18T11:04:20.495Z,45472
2017-10-18T11:05:20.526Z,47328
2017-10-18T11:06:20.557Z,44640
2017-10-18T11:07:20.601Z,41600
2017-10-18T11:08:20.648Z,41856
2017-10-18T11:09:20.675Z,49120
2017-10-18T11:10:20.717Z,47008
2017-10-18T11:11:21.172Z,43680
2017-10-18T11:12:20.784Z,44608
2017-10-18T11:13:20.825Z,45856
2017-10-18T11:14:20.853Z,46400
2017-10-18T11:15:20.891Z,43232
2017-10-18T11:16:20.929Z,45184
2017-10-18T11:17:21.294Z,47712
2017-10-18T11:18:21.014Z,51328
2017-10-18T11:19:21.063Z,53600
2017-10-18T11:20:21.081Z,54752
2017-10-18T11:21:21.124Z,56992
2017-10-18T11:22:21.476Z,54368
2017-10-18T11:23:21.581Z,51616
2017-10-18T11:24:21.229Z,50624
2017-10-18T11:25:21.280Z,49312
2017-10-18T11:26:21.638Z,49856
2017-10-18T11:27:21.352Z,49664
2017-10-18T11:28:21.381Z,48864
2017-10-18T11:29:21.470Z,51616
2017-10-18T11:30:21.454Z,51296
2017-10-18T11:31:21.491Z,57024
2017-10-18T11:32:21.536Z,60224
2017-10-18T11:33:21.577Z,60384
2017-10-18T11:34:21.620Z,63392
2017-10-18T11:35:21.671Z,64704
2017-10-18T11:36:21.681Z,63776
2017-10-18T11:37:21.721Z,65696
2017-10-18T11:38:21.759Z,64384
2017-10-18T11:39:21.793Z,62592
2017-10-18T11:40:21.831Z,57920
2017-10-18T11:41:21.876Z,59712
2017-10-18T11:42:22.242Z,67008
2017-10-18T11:43:21.967Z,71680
2017-10-18T11:44:22.046Z,70560
2017-10-18T11:45:22.031Z,69664
2017-10-18T11:46:22.069Z,68800
2017-10-18T11:47:22.450Z,68960
2017-10-18T11:48:22.155Z,72544
2017-10-18T11:49:22.196Z,73312
2017-10-18T11:50:22.232Z,72480
2017-10-18T11:51:22.260Z,69376
2017-10-18T11:52:22.299Z,66592
2017-10-18T11:53:22.340Z,66496
2017-10-18T11:54:22.380Z,68736
2017-10-18T11:55:22.423Z,72128
2017-10-18T11:56:22.792Z,76416
2017-10-18T11:57:22.499Z,75072
2017-10-18T11:58:22.533Z,74400
2017-10-18T11:59:22.622Z,64160
2017-10-18T12:00:22.952Z,77440
2017-10-18T12:01:22.649Z,80128
2017-10-18T12:02:23.015Z,80224
2017-10-18T12:03:22.726Z,79680
2017-10-18T12:04:22.769Z,65888
2017-10-18T12:05:22.805Z,47808
2017-10-18T12:06:23.180Z,67936
2017-10-18T12:07:22.934Z,73920
2017-10-18T12:08:22.921Z,75584
2017-10-18T12:09:22.958Z,76448
2017-10-18T12:10:23.403Z,76544
2017-10-18T12:11:23.038Z,77792
2017-10-18T12:12:23.089Z,80000
2017-10-18T12:13:23.898Z,79264
2017-10-18T12:14:23.159Z,77856
2017-10-18T12:15:23.540Z,72640
2017-10-18T12:16:23.242Z,69408
2017-10-18T12:17:23.281Z,72192
2017-10-18T12:18:23.642Z,74560
2017-10-18T12:19:23.420Z,80032
2017-10-18T12:20:23.731Z,76864
2017-10-18T12:21:23.449Z,73024
2017-10-18T12:22:23.499Z,63488
2017-10-18T12:23:23.843Z,53152
2017-10-18T12:24:23.557Z,49184
2017-10-18T12:25:23.592Z,56384
2017-10-18T12:26:23.641Z,64768
2017-10-18T12:27:23.684Z,73184
2017-10-18T12:28:23.750Z,79616
2017-10-18T12:29:23.773Z,78944
2017-10-18T12:30:23.818Z,77632
2017-10-18T12:31:23.835Z,78688
2017-10-18T12:32:23.880Z,80160
2017-10-18T12:33:23.923Z,80064
2017-10-18T12:34:24.348Z,77408
2017-10-18T12:35:23.995Z,77056
2017-10-18T12:36:24.391Z,75040
2017-10-18T12:37:24.076Z,72768
2017-10-18T12:38:24.115Z,68896
2017-10-18T12:39:24.228Z,66560
2017-10-18T12:40:24.194Z,66784
2017-10-18T12:41:24.234Z,65728
2017-10-18T12:42:24.277Z,61280
2017-10-18T12:43:24.311Z,56064
2017-10-18T12:44:24.352Z,55040
2017-10-18T12:45:24.399Z,58752
2017-10-18T12:46:24.436Z,65152
2017-10-18T12:47:24.798Z,67680
2017-10-18T12:48:24.525Z,66528
2017-10-18T12:49:24.568Z,67488
2017-10-18T12:50:24.597Z,69920
2017-10-18T12:51:24.635Z,72128
2017-10-18T12:52:24.680Z,74016
2017-10-18T12:53:24.717Z,75040
2017-10-18T12:54:24.759Z,74240
2017-10-18T12:55:24.802Z,70944
2017-10-18T12:56:24.845Z,70368
2017-10-18T12:57:25.206Z,68544
2017-10-18T12:58:24.917Z,67456
2017-10-18T12:59:24.957Z,68608
2017-10-18T13:00:25.702Z,74080
2017-10-18T13:01:25.042Z,75680
2017-10-18T13:02:26.086Z,76288
2017-10-18T13:03:25.453Z,73696
2017-10-18T13:04:25.165Z,69728
2017-10-18T13:05:25.205Z,67968
2017-10-18T13:06:25.348Z,66432
2017-10-18T13:07:25.348Z,65696
2017-10-18T13:08:25.321Z,67040
2017-10-18T13:09:25.369Z,68960
2017-10-18T13:10:25.406Z,69568
2017-10-18T13:11:25.867Z,70880
2017-10-18T13:12:25.524Z,75712
2017-10-18T13:13:25.530Z,80640
2017-10-18T13:14:25.574Z,84192
2017-10-18T13:15:25.601Z,82976
2017-10-18T13:16:26.686Z,79712
2017-10-18T13:17:25.705Z,78144
2017-10-18T13:18:25.731Z,77056
2017-10-18T13:19:25.771Z,76032
2017-10-18T13:20:26.134Z,78464
2017-10-18T13:21:25.850Z,82720
2017-10-18T13:22:26.286Z,87200
2017-10-18T13:23:26.587Z,89792
2017-10-18T13:24:25.983Z,89152
2017-10-18T13:25:26.019Z,88832
2017-10-18T13:26:26.059Z,89856
2017-10-18T13:27:26.090Z,86144
2017-10-18T13:28:26.132Z,85536
2017-10-18T13:29:26.190Z,88000
2017-10-18T13:30:26.217Z,87392
2017-10-18T13:31:26.261Z,87648
2017-10-18T13:32:26.307Z,82112
2017-10-18T13:33:26.344Z,82528
2017-10-18T13:34:26.378Z,82816
2017-10-18T13:35:26.743Z,80736
2017-10-18T13:36:26.455Z,79008
2017-10-18T13:37:26.549Z,78560
2017-10-18T13:38:26.535Z,77984
2017-10-18T13:39:26.581Z,80832
2017-10-18T13:40:26.620Z,83552
2017-10-18T13:41:26.668Z,84064
2017-10-18T13:42:26.730Z,81312
2017-10-18T13:43:27.074Z,76096
2017-10-18T13:44:26.775Z,70752